sensor_id;sensor_type;location;lat;lon;timestamp;P1;durP1;ratioP1;P2;durP2;ratioP2
25409;SDS011;13339;50.840;4.346;2023-11-19T00:00:16;6.60;;;4.10;;
25409;SDS011;13339;50.840;4.346;2023-11-19T00:02:42;9.50;;;3.90;;
25409;SDS011;13339;50.840;4.346;2023-11-19T00:05:08;9.23;;;3.90;;
25409;SDS011;13339;50.840;4.346;2023-11-19T00:07:36;14.00;;;3.83;;
25409;SDS011;13339;50.840;4.346;2023-11-19T00:10:06;8.23;;;4.17;;
25409;SDS011;13339;50.840;4.346;2023-11-19T00:12:39;8.40;;;3.50;;
25409;SDS011;13339;50.840;4.346;2023-11-19T00:15:06;10.10;;;4.00;;
25409;SDS011;13339;50.840;4.346;2023-11-19T00:17:45;9.90;;;3.93;;
25409;SDS011;13339;50.840;4.346;2023-11-19T00:20:13;12.53;;;3.60;;
25409;SDS011;13339;50.840;4.346;2023-11-19T00:22:40;16.63;;;3.37;;
25409;SDS011;13339;50.840;4.346;2023-11-19T00:25:08;10.27;;;3.63;;
25409;SDS011;13339;50.840;4.346;2023-11-19T00:27:34;10.27;;;4.00;;
25409;SDS011;13339;50.840;4.346;2023-11-19T00:29:59;11.83;;;3.63;;
25409;SDS011;13339;50.840;4.346;2023-11-19T00:32:25;15.43;;;4.10;;
25409;SDS011;13339;50.840;4.346;2023-11-19T00:34:51;9.07;;;2.97;;
25409;SDS011;13339;50.840;4.346;2023-11-19T00:37:17;11.07;;;3.57;;
25409;SDS011;13339;50.840;4.346;2023-11-19T00:39:42;11.77;;;3.47;;
25409;SDS011;13339;50.840;4.346;2023-11-19T00:42:11;13.80;;;4.70;;
25409;SDS011;13339;50.840;4.346;2023-11-19T00:44:37;8.67;;;3.73;;
25409;SDS011;13339;50.840;4.346;2023-11-19T00:47:02;11.37;;;4.10;;
25409;SDS011;13339;50.840;4.346;2023-11-19T00:49:28;11.17;;;3.47;;
25409;SDS011;13339;50.840;4.346;2023-11-19T00:51:54;15.50;;;3.80;;
25409;SDS011;13339;50.840;4.346;2023-11-19T00:54:19;10.73;;;3.43;;
25409;SDS011;13339;50.840;4.346;2023-11-19T00:56:45;12.37;;;3.30;;
25409;SDS011;13339;50.840;4.346;2023-11-19T00:59:11;14.17;;;3.80;;
25409;SDS011;13339;50.840;4.346;2023-11-19T01:01:37;15.27;;;3.63;;
25409;SDS011;13339;50.840;4.346;2023-11-19T01:04:02;15.43;;;3.53;;
25409;SDS011;13339;50.840;4.346;2023-11-19T01:06:31;15.10;;;3.43;;
25409;SDS011;13339;50.840;4.346;2023-11-19T01:08:57;14.60;;;3.67;;
25409;SDS011;13339;50.840;4.346;2023-11-19T01:11:23;14.63;;;3.57;;
25409;SDS011;13339;50.840;4.346;2023-11-19T01:13:49;11.10;;;3.53;;
25409;SDS011;13339;50.840;4.346;2023-11-19T01:16:16;12.80;;;3.10;;
25409;SDS011;13339;50.840;4.346;2023-11-19T01:18:42;17.63;;;4.23;;
25409;SDS011;13339;50.840;4.346;2023-11-19T01:21:08;13.77;;;3.50;;
25409;SDS011;13339;50.840;4.346;2023-11-19T01:23:34;15.93;;;4.33;;
25409;SDS011;13339;50.840;4.346;2023-11-19T01:26:00;13.97;;;4.03;;
25409;SDS011;13339;50.840;4.346;2023-11-19T01:28:25;13.37;;;3.33;;
25409;SDS011;13339;50.840;4.346;2023-11-19T01:30:51;12.20;;;3.17;;
25409;SDS011;13339;50.840;4.346;2023-11-19T01:33:17;17.83;;;3.77;;
25409;SDS011;13339;50.840;4.346;2023-11-19T01:35:42;16.73;;;3.63;;
25409;SDS011;13339;50.840;4.346;2023-11-19T01:38:08;14.87;;;3.80;;
25409;SDS011;13339;50.840;4.346;2023-11-19T01:40:34;17.33;;;3.73;;
25409;SDS011;13339;50.840;4.346;2023-11-19T01:43:01;17.07;;;4.30;;
25409;SDS011;13339;50.840;4.346;2023-11-19T01:45:28;27.43;;;4.10;;
25409;SDS011;13339;50.840;4.346;2023-11-19T01:47:55;15.20;;;3.80;;
25409;SDS011;13339;50.840;4.346;2023-11-19T01:50:23;20.20;;;4.53;;
25409;SDS011;13339;50.840;4.346;2023-11-19T01:52:54;11.93;;;3.40;;
25409;SDS011;13339;50.840;4.346;2023-11-19T01:55:22;22.80;;;4.07;;
25409;SDS011;13339;50.840;4.346;2023-11-19T01:57:50;20.77;;;3.97;;
25409;SDS011;13339;50.840;4.346;2023-11-19T02:00:18;21.67;;;4.77;;
25409;SDS011;13339;50.840;4.346;2023-11-19T02:02:45;22.43;;;3.83;;
25409;SDS011;13339;50.840;4.346;2023-11-19T02:05:13;16.73;;;3.37;;
25409;SDS011;13339;50.840;4.346;2023-11-19T02:07:39;21.07;;;4.43;;
25409;SDS011;13339;50.840;4.346;2023-11-19T02:10:05;19.17;;;3.60;;
25409;SDS011;13339;50.840;4.346;2023-11-19T02:12:37;23.50;;;4.20;;
25409;SDS011;13339;50.840;4.346;2023-11-19T02:15:03;18.83;;;4.03;;
25409;SDS011;13339;50.840;4.346;2023-11-19T02:17:30;19.93;;;3.80;;
25409;SDS011;13339;50.840;4.346;2023-11-19T02:20:05;21.93;;;4.37;;
25409;SDS011;13339;50.840;4.346;2023-11-19T02:22:49;20.20;;;4.50;;
25409;SDS011;13339;50.840;4.346;2023-11-19T02:25:22;33.13;;;3.77;;
25409;SDS011;13339;50.840;4.346;2023-11-19T02:27:55;20.43;;;3.50;;
25409;SDS011;13339;50.840;4.346;2023-11-19T02:30:24;23.00;;;4.10;;
25409;SDS011;13339;50.840;4.346;2023-11-19T02:32:54;26.53;;;4.60;;
25409;SDS011;13339;50.840;4.346;2023-11-19T02:35:22;23.50;;;4.87;;
25409;SDS011;13339;50.840;4.346;2023-11-19T02:37:48;19.07;;;4.53;;
25409;SDS011;13339;50.840;4.346;2023-11-19T02:40:14;15.20;;;3.50;;
25409;SDS011;13339;50.840;4.346;2023-11-19T02:42:39;21.30;;;4.70;;
25409;SDS011;13339;50.840;4.346;2023-11-19T02:45:05;15.90;;;3.87;;
25409;SDS011;13339;50.840;4.346;2023-11-19T02:47:32;21.40;;;4.10;;
25409;SDS011;13339;50.840;4.346;2023-11-19T02:49:58;29.20;;;5.10;;
25409;SDS011;13339;50.840;4.346;2023-11-19T02:52:24;20.07;;;3.83;;
25409;SDS011;13339;50.840;4.346;2023-11-19T02:54:50;20.83;;;3.50;;
25409;SDS011;13339;50.840;4.346;2023-11-19T02:57:16;22.50;;;4.20;;
25409;SDS011;13339;50.840;4.346;2023-11-19T02:59:44;20.20;;;4.33;;
25409;SDS011;13339;50.840;4.346;2023-11-19T03:02:10;19.10;;;4.00;;
25409;SDS011;13339;50.840;4.346;2023-11-19T03:04:36;25.70;;;4.73;;
25409;SDS011;13339;50.840;4.346;2023-11-19T03:07:07;20.53;;;3.73;;
25409;SDS011;13339;50.840;4.346;2023-11-19T03:09:33;21.87;;;4.60;;
25409;SDS011;13339;50.840;4.346;2023-11-19T03:12:00;22.63;;;4.50;;
25409;SDS011;13339;50.840;4.346;2023-11-19T03:14:26;20.73;;;4.73;;
25409;SDS011;13339;50.840;4.346;2023-11-19T03:16:51;23.83;;;4.17;;
25409;SDS011;13339;50.840;4.346;2023-11-19T03:19:17;26.40;;;4.40;;
25409;SDS011;13339;50.840;4.346;2023-11-19T03:21:42;23.73;;;4.63;;
25409;SDS011;13339;50.840;4.346;2023-11-19T03:24:09;27.23;;;4.43;;
25409;SDS011;13339;50.840;4.346;2023-11-19T03:26:35;22.27;;;3.90;;
25409;SDS011;13339;50.840;4.346;2023-11-19T03:29:02;21.47;;;4.53;;
25409;SDS011;13339;50.840;4.346;2023-11-19T03:31:27;32.67;;;5.00;;
25409;SDS011;13339;50.840;4.346;2023-11-19T03:33:53;24.07;;;4.90;;
25409;SDS011;13339;50.840;4.346;2023-11-19T03:36:19;25.27;;;4.17;;
25409;SDS011;13339;50.840;4.346;2023-11-19T03:38:45;23.50;;;4.23;;
25409;SDS011;13339;50.840;4.346;2023-11-19T03:41:11;21.90;;;4.83;;
25409;SDS011;13339;50.840;4.346;2023-11-19T03:43:38;29.53;;;4.60;;
25409;SDS011;13339;50.840;4.346;2023-11-19T03:46:04;27.40;;;4.53;;
25409;SDS011;13339;50.840;4.346;2023-11-19T03:48:40;28.10;;;4.27;;
25409;SDS011;13339;50.840;4.346;2023-11-19T03:51:05;21.57;;;4.37;;
25409;SDS011;13339;50.840;4.346;2023-11-19T03:53:31;21.20;;;4.23;;
25409;SDS011;13339;50.840;4.346;2023-11-19T03:55:56;27.07;;;5.50;;
25409;SDS011;13339;50.840;4.346;2023-11-19T03:58:22;33.97;;;5.23;;
25409;SDS011;13339;50.840;4.346;2023-11-19T04:00:47;22.23;;;5.07;;
25409;SDS011;13339;50.840;4.346;2023-11-19T04:03:13;20.53;;;3.97;;
25409;SDS011;13339;50.840;4.346;2023-11-19T04:05:38;30.57;;;4.53;;
25409;SDS011;13339;50.840;4.346;2023-11-19T04:08:04;24.07;;;4.60;;
25409;SDS011;13339;50.840;4.346;2023-11-19T04:10:30;31.60;;;5.03;;
25409;SDS011;13339;50.840;4.346;2023-11-19T04:12:56;29.10;;;4.80;;
25409;SDS011;13339;50.840;4.346;2023-11-19T04:15:21;28.03;;;5.13;;
25409;SDS011;13339;50.840;4.346;2023-11-19T04:17:47;24.87;;;4.10;;
25409;SDS011;13339;50.840;4.346;2023-11-19T04:20:13;23.70;;;4.30;;
25409;SDS011;13339;50.840;4.346;2023-11-19T04:22:39;26.13;;;4.80;;
25409;SDS011;13339;50.840;4.346;2023-11-19T04:25:05;18.60;;;4.20;;
25409;SDS011;13339;50.840;4.346;2023-11-19T04:27:31;21.87;;;4.70;;
25409;SDS011;13339;50.840;4.346;2023-11-19T04:29:57;26.40;;;4.73;;
25409;SDS011;13339;50.840;4.346;2023-11-19T04:32:22;25.17;;;4.30;;
25409;SDS011;13339;50.840;4.346;2023-11-19T04:34:50;31.07;;;6.07;;
25409;SDS011;13339;50.840;4.346;2023-11-19T04:37:16;33.57;;;5.57;;
25409;SDS011;13339;50.840;4.346;2023-11-19T04:39:41;23.67;;;4.57;;
25409;SDS011;13339;50.840;4.346;2023-11-19T04:42:09;31.27;;;5.60;;
25409;SDS011;13339;50.840;4.346;2023-11-19T04:44:35;30.83;;;5.70;;
25409;SDS011;13339;50.840;4.346;2023-11-19T04:47:01;32.90;;;6.33;;
25409;SDS011;13339;50.840;4.346;2023-11-19T04:49:26;30.43;;;6.60;;
25409;SDS011;13339;50.840;4.346;2023-11-19T04:51:52;35.03;;;5.87;;
25409;SDS011;13339;50.840;4.346;2023-11-19T04:54:18;34.10;;;5.73;;
25409;SDS011;13339;50.840;4.346;2023-11-19T04:56:47;32.63;;;5.57;;
25409;SDS011;13339;50.840;4.346;2023-11-19T04:59:13;31.17;;;5.80;;
25409;SDS011;13339;50.840;4.346;2023-11-19T05:01:39;37.40;;;6.60;;
25409;SDS011;13339;50.840;4.346;2023-11-19T05:04:05;31.50;;;6.13;;
25409;SDS011;13339;50.840;4.346;2023-11-19T05:06:32;35.73;;;5.90;;
25409;SDS011;13339;50.840;4.346;2023-11-19T05:08:58;24.37;;;5.27;;
25409;SDS011;13339;50.840;4.346;2023-11-19T05:11:34;29.23;;;5.03;;
25409;SDS011;13339;50.840;4.346;2023-11-19T05:14:01;26.47;;;5.20;;
25409;SDS011;13339;50.840;4.346;2023-11-19T05:16:29;36.27;;;5.80;;
25409;SDS011;13339;50.840;4.346;2023-11-19T05:18:54;34.90;;;6.30;;
25409;SDS011;13339;50.840;4.346;2023-11-19T05:21:20;34.33;;;5.60;;
25409;SDS011;13339;50.840;4.346;2023-11-19T05:23:46;31.93;;;5.70;;
25409;SDS011;13339;50.840;4.346;2023-11-19T05:26:21;42.57;;;5.73;;
25409;SDS011;13339;50.840;4.346;2023-11-19T05:28:48;42.07;;;5.80;;
25409;SDS011;13339;50.840;4.346;2023-11-19T05:31:15;34.67;;;6.07;;
25409;SDS011;13339;50.840;4.346;2023-11-19T05:33:42;34.67;;;5.03;;
25409;SDS011;13339;50.840;4.346;2023-11-19T05:36:07;23.53;;;5.67;;
25409;SDS011;13339;50.840;4.346;2023-11-19T05:38:34;41.83;;;6.40;;
25409;SDS011;13339;50.840;4.346;2023-11-19T05:41:00;32.20;;;5.63;;
25409;SDS011;13339;50.840;4.346;2023-11-19T05:43:26;32.47;;;5.57;;
25409;SDS011;13339;50.840;4.346;2023-11-19T05:45:51;36.60;;;5.83;;
25409;SDS011;13339;50.840;4.346;2023-11-19T05:48:17;39.27;;;5.70;;
25409;SDS011;13339;50.840;4.346;2023-11-19T05:50:42;35.83;;;6.23;;
25409;SDS011;13339;50.840;4.346;2023-11-19T05:53:08;40.63;;;5.80;;
25409;SDS011;13339;50.840;4.346;2023-11-19T05:55:35;41.23;;;6.80;;
25409;SDS011;13339;50.840;4.346;2023-11-19T05:58:10;29.93;;;5.67;;
25409;SDS011;13339;50.840;4.346;2023-11-19T06:00:37;31.10;;;6.07;;
25409;SDS011;13339;50.840;4.346;2023-11-19T06:03:04;47.73;;;6.30;;
25409;SDS011;13339;50.840;4.346;2023-11-19T06:05:29;31.10;;;6.20;;
25409;SDS011;13339;50.840;4.346;2023-11-19T06:07:55;40.53;;;7.10;;
25409;SDS011;13339;50.840;4.346;2023-11-19T06:10:22;42.20;;;7.07;;
25409;SDS011;13339;50.840;4.346;2023-11-19T06:12:53;34.83;;;5.90;;
25409;SDS011;13339;50.840;4.346;2023-11-19T06:15:21;32.93;;;6.60;;
25409;SDS011;13339;50.840;4.346;2023-11-19T06:17:47;31.90;;;6.37;;
25409;SDS011;13339;50.840;4.346;2023-11-19T06:20:13;37.03;;;5.43;;
25409;SDS011;13339;50.840;4.346;2023-11-19T06:22:39;36.10;;;5.43;;
25409;SDS011;13339;50.840;4.346;2023-11-19T06:25:07;31.73;;;5.90;;
25409;SDS011;13339;50.840;4.346;2023-11-19T06:27:33;43.07;;;6.40;;
25409;SDS011;13339;50.840;4.346;2023-11-19T06:29:59;35.57;;;5.40;;
25409;SDS011;13339;50.840;4.346;2023-11-19T06:32:25;36.10;;;6.13;;
25409;SDS011;13339;50.840;4.346;2023-11-19T06:34:51;38.03;;;6.17;;
25409;SDS011;13339;50.840;4.346;2023-11-19T06:37:16;29.73;;;5.57;;
25409;SDS011;13339;50.840;4.346;2023-11-19T06:39:42;33.57;;;6.17;;
25409;SDS011;13339;50.840;4.346;2023-11-19T06:42:08;29.87;;;5.93;;
25409;SDS011;13339;50.840;4.346;2023-11-19T06:44:33;30.87;;;5.80;;
25409;SDS011;13339;50.840;4.346;2023-11-19T06:46:59;35.63;;;6.50;;
25409;SDS011;13339;50.840;4.346;2023-11-19T06:49:25;31.03;;;5.17;;
25409;SDS011;13339;50.840;4.346;2023-11-19T06:51:50;29.80;;;4.87;;
25409;SDS011;13339;50.840;4.346;2023-11-19T06:54:16;35.77;;;5.67;;
25409;SDS011;13339;50.840;4.346;2023-11-19T06:56:42;29.00;;;6.10;;
25409;SDS011;13339;50.840;4.346;2023-11-19T06:59:08;32.10;;;5.37;;
25409;SDS011;13339;50.840;4.346;2023-11-19T07:01:34;28.57;;;6.07;;
25409;SDS011;13339;50.840;4.346;2023-11-19T07:04:01;38.90;;;6.37;;
25409;SDS011;13339;50.840;4.346;2023-11-19T07:06:33;38.27;;;5.97;;
25409;SDS011;13339;50.840;4.346;2023-11-19T07:08:58;34.70;;;5.93;;
25409;SDS011;13339;50.840;4.346;2023-11-19T07:11:24;42.73;;;6.77;;
25409;SDS011;13339;50.840;4.346;2023-11-19T07:13:49;33.13;;;5.60;;
25409;SDS011;13339;50.840;4.346;2023-11-19T07:16:15;39.50;;;6.37;;
25409;SDS011;13339;50.840;4.346;2023-11-19T07:18:41;36.67;;;6.93;;
25409;SDS011;13339;50.840;4.346;2023-11-19T07:21:08;41.67;;;6.93;;
25409;SDS011;13339;50.840;4.346;2023-11-19T07:23:35;32.93;;;5.73;;
25409;SDS011;13339;50.840;4.346;2023-11-19T07:26:01;44.47;;;6.77;;
25409;SDS011;13339;50.840;4.346;2023-11-19T07:28:29;33.57;;;6.30;;
25409;SDS011;13339;50.840;4.346;2023-11-19T07:30:55;33.50;;;7.53;;
25409;SDS011;13339;50.840;4.346;2023-11-19T07:33:21;37.43;;;6.60;;
25409;SDS011;13339;50.840;4.346;2023-11-19T07:35:47;39.13;;;5.90;;
25409;SDS011;13339;50.840;4.346;2023-11-19T07:38:13;36.90;;;6.13;;
25409;SDS011;13339;50.840;4.346;2023-11-19T07:40:39;30.87;;;5.90;;
25409;SDS011;13339;50.840;4.346;2023-11-19T07:43:04;29.20;;;5.57;;
25409;SDS011;13339;50.840;4.346;2023-11-19T07:45:32;37.07;;;6.10;;
25409;SDS011;13339;50.840;4.346;2023-11-19T07:47:57;40.30;;;6.60;;
25409;SDS011;13339;50.840;4.346;2023-11-19T07:50:23;42.93;;;6.27;;
25409;SDS011;13339;50.840;4.346;2023-11-19T07:52:50;36.07;;;5.80;;
25409;SDS011;13339;50.840;4.346;2023-11-19T07:55:15;37.17;;;5.60;;
25409;SDS011;13339;50.840;4.346;2023-11-19T07:57:41;30.77;;;5.20;;
25409;SDS011;13339;50.840;4.346;2023-11-19T08:00:07;37.27;;;5.30;;
25409;SDS011;13339;50.840;4.346;2023-11-19T08:02:37;44.77;;;6.00;;
25409;SDS011;13339;50.840;4.346;2023-11-19T08:05:03;29.83;;;6.93;;
25409;SDS011;13339;50.840;4.346;2023-11-19T08:07:29;36.57;;;7.00;;
25409;SDS011;13339;50.840;4.346;2023-11-19T08:09:55;37.13;;;5.03;;
25409;SDS011;13339;50.840;4.346;2023-11-19T08:12:20;39.07;;;5.93;;
25409;SDS011;13339;50.840;4.346;2023-11-19T08:14:46;37.33;;;6.20;;
25409;SDS011;13339;50.840;4.346;2023-11-19T08:17:11;33.23;;;5.57;;
25409;SDS011;13339;50.840;4.346;2023-11-19T08:19:37;34.30;;;6.23;;
25409;SDS011;13339;50.840;4.346;2023-11-19T08:22:02;31.43;;;5.93;;
25409;SDS011;13339;50.840;4.346;2023-11-19T08:24:28;36.80;;;6.20;;
25409;SDS011;13339;50.840;4.346;2023-11-19T08:26:54;25.90;;;5.57;;
25409;SDS011;13339;50.840;4.346;2023-11-19T08:29:19;32.17;;;5.80;;
25409;SDS011;13339;50.840;4.346;2023-11-19T08:31:46;35.10;;;5.97;;
25409;SDS011;13339;50.840;4.346;2023-11-19T08:34:11;31.03;;;5.90;;
25409;SDS011;13339;50.840;4.346;2023-11-19T08:36:37;25.27;;;4.80;;
25409;SDS011;13339;50.840;4.346;2023-11-19T08:39:03;29.70;;;5.40;;
25409;SDS011;13339;50.840;4.346;2023-11-19T08:41:28;39.83;;;5.70;;
25409;SDS011;13339;50.840;4.346;2023-11-19T08:43:54;28.03;;;5.20;;
25409;SDS011;13339;50.840;4.346;2023-11-19T08:46:19;36.33;;;6.70;;
25409;SDS011;13339;50.840;4.346;2023-11-19T08:48:45;30.27;;;4.90;;
25409;SDS011;13339;50.840;4.346;2023-11-19T08:51:13;26.17;;;5.40;;
25409;SDS011;13339;50.840;4.346;2023-11-19T08:53:39;43.63;;;6.50;;
25409;SDS011;13339;50.840;4.346;2023-11-19T08:56:05;34.77;;;5.60;;
25409;SDS011;13339;50.840;4.346;2023-11-19T08:58:31;37.13;;;4.70;;
25409;SDS011;13339;50.840;4.346;2023-11-19T09:00:57;25.37;;;5.80;;
25409;SDS011;13339;50.840;4.346;2023-11-19T09:03:23;30.53;;;4.97;;
25409;SDS011;13339;50.840;4.346;2023-11-19T09:05:51;38.60;;;5.87;;
25409;SDS011;13339;50.840;4.346;2023-11-19T09:08:17;26.73;;;5.57;;
25409;SDS011;13339;50.840;4.346;2023-11-19T09:10:42;21.63;;;4.43;;
25409;SDS011;13339;50.840;4.346;2023-11-19T09:13:08;42.03;;;5.67;;
25409;SDS011;13339;50.840;4.346;2023-11-19T09:15:33;29.73;;;5.23;;
25409;SDS011;13339;50.840;4.346;2023-11-19T09:17:59;28.10;;;4.80;;
25409;SDS011;13339;50.840;4.346;2023-11-19T09:20:25;27.33;;;5.10;;
25409;SDS011;13339;50.840;4.346;2023-11-19T09:22:50;31.13;;;5.37;;
25409;SDS011;13339;50.840;4.346;2023-11-19T09:25:16;27.03;;;5.27;;
25409;SDS011;13339;50.840;4.346;2023-11-19T09:27:42;26.30;;;5.63;;
25409;SDS011;13339;50.840;4.346;2023-11-19T09:30:11;23.93;;;4.30;;
25409;SDS011;13339;50.840;4.346;2023-11-19T09:32:37;24.13;;;4.83;;
25409;SDS011;13339;50.840;4.346;2023-11-19T09:35:03;30.73;;;5.03;;
25409;SDS011;13339;50.840;4.346;2023-11-19T09:37:29;26.30;;;5.03;;
25409;SDS011;13339;50.840;4.346;2023-11-19T09:39:55;34.37;;;5.27;;
25409;SDS011;13339;50.840;4.346;2023-11-19T09:42:21;18.77;;;4.20;;
25409;SDS011;13339;50.840;4.346;2023-11-19T09:44:48;24.70;;;5.40;;
25409;SDS011;13339;50.840;4.346;2023-11-19T09:47:14;23.67;;;4.03;;
25409;SDS011;13339;50.840;4.346;2023-11-19T09:49:41;30.93;;;5.37;;
25409;SDS011;13339;50.840;4.346;2023-11-19T09:52:08;34.13;;;4.97;;
25409;SDS011;13339;50.840;4.346;2023-11-19T09:54:34;24.90;;;5.03;;
25409;SDS011;13339;50.840;4.346;2023-11-19T09:56:59;22.97;;;4.53;;
25409;SDS011;13339;50.840;4.346;2023-11-19T09:59:29;25.10;;;5.30;;
25409;SDS011;13339;50.840;4.346;2023-11-19T10:01:55;32.40;;;5.70;;
25409;SDS011;13339;50.840;4.346;2023-11-19T10:04:21;33.97;;;5.10;;
25409;SDS011;13339;50.840;4.346;2023-11-19T10:06:48;29.37;;;5.70;;
25409;SDS011;13339;50.840;4.346;2023-11-19T10:09:15;26.63;;;5.03;;
25409;SDS011;13339;50.840;4.346;2023-11-19T10:11:41;30.43;;;5.13;;
25409;SDS011;13339;50.840;4.346;2023-11-19T10:14:07;19.07;;;4.17;;
25409;SDS011;13339;50.840;4.346;2023-11-19T10:16:34;29.90;;;5.33;;
25409;SDS011;13339;50.840;4.346;2023-11-19T10:18:59;27.47;;;5.40;;
25409;SDS011;13339;50.840;4.346;2023-11-19T10:21:25;29.23;;;5.57;;
25409;SDS011;13339;50.840;4.346;2023-11-19T10:23:53;24.57;;;4.67;;
25409;SDS011;13339;50.840;4.346;2023-11-19T10:26:22;28.53;;;5.23;;
25409;SDS011;13339;50.840;4.346;2023-11-19T10:28:48;30.77;;;5.23;;
25409;SDS011;13339;50.840;4.346;2023-11-19T10:31:17;29.13;;;5.47;;
25409;SDS011;13339;50.840;4.346;2023-11-19T10:33:44;27.30;;;5.10;;
25409;SDS011;13339;50.840;4.346;2023-11-19T10:36:13;24.97;;;4.63;;
25409;SDS011;13339;50.840;4.346;2023-11-19T10:38:39;28.83;;;4.93;;
25409;SDS011;13339;50.840;4.346;2023-11-19T10:41:06;21.03;;;5.23;;
25409;SDS011;13339;50.840;4.346;2023-11-19T10:43:42;22.50;;;4.33;;
25409;SDS011;13339;50.840;4.346;2023-11-19T10:46:13;26.73;;;4.63;;
25409;SDS011;13339;50.840;4.346;2023-11-19T10:48:39;17.80;;;4.00;;
25409;SDS011;13339;50.840;4.346;2023-11-19T10:51:06;20.87;;;3.77;;
25409;SDS011;13339;50.840;4.346;2023-11-19T10:53:39;17.90;;;4.50;;
25409;SDS011;13339;50.840;4.346;2023-11-19T10:56:10;21.43;;;4.20;;
25409;SDS011;13339;50.840;4.346;2023-11-19T10:58:36;19.07;;;4.20;;
25409;SDS011;13339;50.840;4.346;2023-11-19T11:01:10;29.43;;;4.80;;
25409;SDS011;13339;50.840;4.346;2023-11-19T11:03:40;24.57;;;4.47;;
25409;SDS011;13339;50.840;4.346;2023-11-19T11:06:08;21.80;;;4.53;;
25409;SDS011;13339;50.840;4.346;2023-11-19T11:08:36;19.07;;;5.10;;
25409;SDS011;13339;50.840;4.346;2023-11-19T11:11:04;22.27;;;4.90;;
25409;SDS011;13339;50.840;4.346;2023-11-19T11:13:31;30.10;;;6.53;;
25409;SDS011;13339;50.840;4.346;2023-11-19T11:15:58;26.53;;;5.57;;
25409;SDS011;13339;50.840;4.346;2023-11-19T11:18:25;21.50;;;4.50;;
25409;SDS011;13339;50.840;4.346;2023-11-19T11:20:56;22.03;;;5.70;;
25409;SDS011;13339;50.840;4.346;2023-11-19T11:23:34;26.67;;;4.70;;
25409;SDS011;13339;50.840;4.346;2023-11-19T11:32:37;33.90;;;5.77;;
25409;SDS011;13339;50.840;4.346;2023-11-19T11:38:03;27.17;;;6.93;;
25409;SDS011;13339;50.840;4.346;2023-11-19T11:40:31;37.83;;;8.40;;
25409;SDS011;13339;50.840;4.346;2023-11-19T11:42:57;28.03;;;6.37;;
25409;SDS011;13339;50.840;4.346;2023-11-19T11:45:39;25.47;;;7.17;;
25409;SDS011;13339;50.840;4.346;2023-11-19T11:48:17;24.60;;;5.93;;
25409;SDS011;13339;50.840;4.346;2023-11-19T11:50:52;25.77;;;5.27;;
25409;SDS011;13339;50.840;4.346;2023-11-19T11:53:19;33.37;;;6.50;;
25409;SDS011;13339;50.840;4.346;2023-11-19T11:58:15;29.53;;;6.00;;
25409;SDS011;13339;50.840;4.346;2023-11-19T12:00:42;23.93;;;5.70;;
25409;SDS011;13339;50.840;4.346;2023-11-19T12:03:08;25.43;;;5.27;;
25409;SDS011;13339;50.840;4.346;2023-11-19T12:05:43;20.47;;;4.27;;
25409;SDS011;13339;50.840;4.346;2023-11-19T12:08:10;26.57;;;4.90;;
25409;SDS011;13339;50.840;4.346;2023-11-19T12:10:46;20.53;;;4.10;;
25409;SDS011;13339;50.840;4.346;2023-11-19T12:13:14;20.20;;;4.47;;
25409;SDS011;13339;50.840;4.346;2023-11-19T12:18:28;19.07;;;3.87;;
25409;SDS011;13339;50.840;4.346;2023-11-19T12:20:56;20.17;;;4.03;;
25409;SDS011;13339;50.840;4.346;2023-11-19T12:23:22;17.13;;;3.60;;
25409;SDS011;13339;50.840;4.346;2023-11-19T12:25:48;23.57;;;4.63;;
25409;SDS011;13339;50.840;4.346;2023-11-19T12:28:14;16.80;;;4.23;;
25409;SDS011;13339;50.840;4.346;2023-11-19T12:30:44;16.87;;;4.40;;
25409;SDS011;13339;50.840;4.346;2023-11-19T12:33:13;18.80;;;5.37;;
25409;SDS011;13339;50.840;4.346;2023-11-19T12:35:42;18.80;;;4.27;;
25409;SDS011;13339;50.840;4.346;2023-11-19T12:38:22;21.23;;;4.83;;
25409;SDS011;13339;50.840;4.346;2023-11-19T12:41:04;24.77;;;4.93;;
25409;SDS011;13339;50.840;4.346;2023-11-19T12:43:31;21.53;;;4.63;;
25409;SDS011;13339;50.840;4.346;2023-11-19T12:45:59;26.63;;;5.13;;
25409;SDS011;13339;50.840;4.346;2023-11-19T12:48:25;31.57;;;5.70;;
25409;SDS011;13339;50.840;4.346;2023-11-19T12:53:18;33.07;;;5.13;;
25409;SDS011;13339;50.840;4.346;2023-11-19T12:55:44;24.47;;;4.33;;
25409;SDS011;13339;50.840;4.346;2023-11-19T12:58:09;25.57;;;5.80;;
25409;SDS011;13339;50.840;4.346;2023-11-19T13:00:35;32.13;;;4.90;;
25409;SDS011;13339;50.840;4.346;2023-11-19T13:03:01;26.30;;;5.60;;
25409;SDS011;13339;50.840;4.346;2023-11-19T13:05:28;27.17;;;5.33;;
25409;SDS011;13339;50.840;4.346;2023-11-19T13:08:06;30.73;;;5.37;;
25409;SDS011;13339;50.840;4.346;2023-11-19T13:10:33;32.60;;;5.67;;
25409;SDS011;13339;50.840;4.346;2023-11-19T13:13:14;19.73;;;4.70;;
25409;SDS011;13339;50.840;4.346;2023-11-19T13:15:40;28.40;;;6.03;;
25409;SDS011;13339;50.840;4.346;2023-11-19T13:18:06;25.50;;;5.23;;
25409;SDS011;13339;50.840;4.346;2023-11-19T13:20:31;34.77;;;5.43;;
25409;SDS011;13339;50.840;4.346;2023-11-19T13:22:59;29.00;;;5.57;;
25409;SDS011;13339;50.840;4.346;2023-11-19T13:25:30;28.43;;;5.47;;
25409;SDS011;13339;50.840;4.346;2023-11-19T13:27:57;24.17;;;5.23;;
25409;SDS011;13339;50.840;4.346;2023-11-19T13:30:23;23.80;;;4.97;;
25409;SDS011;13339;50.840;4.346;2023-11-19T13:32:50;29.53;;;5.93;;
25409;SDS011;13339;50.840;4.346;2023-11-19T13:35:16;30.60;;;5.50;;
25409;SDS011;13339;50.840;4.346;2023-11-19T13:37:43;28.27;;;5.57;;
25409;SDS011;13339;50.840;4.346;2023-11-19T13:40:10;25.23;;;5.50;;
25409;SDS011;13339;50.840;4.346;2023-11-19T13:42:38;25.53;;;6.13;;
25409;SDS011;13339;50.840;4.346;2023-11-19T13:45:07;30.23;;;5.90;;
25409;SDS011;13339;50.840;4.346;2023-11-19T13:47:36;35.80;;;6.47;;
25409;SDS011;13339;50.840;4.346;2023-11-19T13:50:09;25.03;;;5.60;;
25409;SDS011;13339;50.840;4.346;2023-11-19T13:52:37;25.83;;;6.03;;
25409;SDS011;13339;50.840;4.346;2023-11-19T13:55:04;27.10;;;6.27;;
25409;SDS011;13339;50.840;4.346;2023-11-19T13:57:31;25.23;;;5.27;;
25409;SDS011;13339;50.840;4.346;2023-11-19T13:59:57;26.03;;;5.77;;
25409;SDS011;13339;50.840;4.346;2023-11-19T14:02:22;34.63;;;6.50;;
25409;SDS011;13339;50.840;4.346;2023-11-19T14:04:48;23.97;;;5.70;;
25409;SDS011;13339;50.840;4.346;2023-11-19T14:07:14;33.60;;;6.60;;
25409;SDS011;13339;50.840;4.346;2023-11-19T14:09:41;21.63;;;5.13;;
25409;SDS011;13339;50.840;4.346;2023-11-19T14:12:07;25.17;;;6.17;;
25409;SDS011;13339;50.840;4.346;2023-11-19T14:14:34;23.67;;;5.27;;
25409;SDS011;13339;50.840;4.346;2023-11-19T14:17:01;31.63;;;6.07;;
25409;SDS011;13339;50.840;4.346;2023-11-19T14:19:28;29.03;;;6.03;;
25409;SDS011;13339;50.840;4.346;2023-11-19T14:21:53;31.50;;;6.10;;
25409;SDS011;13339;50.840;4.346;2023-11-19T14:24:19;35.00;;;6.23;;
25409;SDS011;13339;50.840;4.346;2023-11-19T14:26:45;27.33;;;5.20;;
25409;SDS011;13339;50.840;4.346;2023-11-19T14:29:12;30.03;;;6.80;;
25409;SDS011;13339;50.840;4.346;2023-11-19T14:31:38;24.20;;;5.47;;
25409;SDS011;13339;50.840;4.346;2023-11-19T14:34:04;30.33;;;6.73;;
25409;SDS011;13339;50.840;4.346;2023-11-19T14:36:30;27.00;;;6.57;;
25409;SDS011;13339;50.840;4.346;2023-11-19T14:38:56;25.53;;;6.60;;
25409;SDS011;13339;50.840;4.346;2023-11-19T14:41:23;37.17;;;7.83;;
25409;SDS011;13339;50.840;4.346;2023-11-19T14:43:49;31.73;;;6.67;;
25409;SDS011;13339;50.840;4.346;2023-11-19T14:46:15;34.80;;;6.27;;
25409;SDS011;13339;50.840;4.346;2023-11-19T14:48:41;30.60;;;6.47;;
25409;SDS011;13339;50.840;4.346;2023-11-19T14:51:06;20.93;;;6.07;;